Time;durP1;ratioP1;P1;durP2;ratioP2;P2;SDS_P1;SDS_P2;PMS_P1;PMS_P2;Temp;Humidity;BMP_temperature;BMP_pressure;BME280_temperature;BME280_humidity;BME280_pressure;Samples;Min_cycle;Max_cycle;Signal;HPM_P1;HPM_P2
2021/04/01 00:01:12;;;;;;;57.35;30.35;;;333.00;1843.20;;;;;;5046144;28;20023;-79
2021/04/01 00:03:40;;;;;;;57.13;29.40;;;332.90;1868.80;;;;;;5045049;28;20036;-80
2021/04/01 00:06:06;;;;;;;43.08;25.33;;;333.00;1894.40;;;;;;5044130;28;20021;-80
2021/04/01 00:08:32;;;;;;;43.10;25.13;;;333.00;1894.40;;;;;;5046010;28;20017;-80
2021/04/01 00:10:58;;;;;;;39.03;23.00;;;332.90;1894.40;;;;;;5042749;28;20049;-79
2021/04/01 00:13:24;;;;;;;37.38;20.90;;;332.80;1920.00;;;;;;5044245;28;20059;-80
2021/04/01 00:15:51;;;;;;;36.95;20.75;;;332.80;1945.60;;;;;;5027839;28;20033;-80
2021/04/01 00:18:20;;;;;;;31.80;18.30;;;332.90;1945.60;;;;;;5047169;28;20023;-78
2021/04/01 00:20:46;;;;;;;30.30;19.52;;;332.90;1945.60;;;;;;5049626;28;20029;-79
2021/04/01 00:23:13;;;;;;;30.27;19.20;;;332.90;1945.60;;;;;;5048834;28;20029;-79
2021/04/01 00:25:39;;;;;;;30.70;19.25;;;332.80;1945.60;;;;;;5043031;28;20033;-79
2021/04/01 00:28:06;;;;;;;31.83;20.48;;;332.80;1945.60;;;;;;5044091;28;20468;-78
2021/04/01 00:30:32;;;;;;;31.08;19.10;;;332.80;1945.60;;;;;;5051339;28;20056;-79
2021/04/01 00:32:58;;;;;;;36.88;21.80;;;332.80;1920.00;;;;;;5035413;28;20464;-78
2021/04/01 00:35:24;;;;;;;34.03;20.50;;;332.80;1920.00;;;;;;5053466;28;20017;-79
2021/04/01 00:37:50;;;;;;;37.70;21.20;;;332.90;1920.00;;;;;;5052001;28;20385;-79
2021/04/01 00:40:16;;;;;;;35.20;21.83;;;332.90;1920.00;;;;;;5053157;28;20477;-77
2021/04/01 00:42:42;;;;;;;42.80;22.73;;;332.90;1920.00;;;;;;5035654;28;20104;-79
2021/04/01 00:45:10;;;;;;;44.65;22.02;;;332.90;1920.00;;;;;;5046081;28;20087;-78
2021/04/01 00:47:42;;;;;;;47.30;24.95;;;332.90;1920.00;;;;;;5047367;28;20745;-79
2021/04/01 00:50:14;;;;;;;42.70;24.10;;;332.90;1945.60;;;;;;5043512;28;20070;-79
2021/04/01 00:52:40;;;;;;;43.92;25.27;;;333.00;1920.00;;;;;;5044692;28;20067;-78
2021/04/01 00:55:08;;;;;;;50.13;27.10;;;333.00;1920.00;;;;;;5047201;28;20021;-79
2021/04/01 00:57:35;;;;;;;58.33;29.90;;;333.00;1920.00;;;;;;5033377;28;20037;-78
2021/04/01 01:00:02;;;;;;;49.03;26.48;;;333.00;1920.00;;;;;;5044432;28;20017;-79
2021/04/01 01:02:28;;;;;;;49.47;27.27;;;333.00;1894.40;;;;;;5044705;28;20010;-79
2021/04/01 01:04:55;;;;;;;57.08;29.08;;;333.00;1920.00;;;;;;5030223;28;20515;-78
2021/04/01 01:07:21;;;;;;;47.42;28.00;;;333.00;1894.40;;;;;;5033941;28;20558;-79
2021/04/01 01:09:47;;;;;;;41.70;26.45;;;332.90;1894.40;;;;;;5052526;28;20041;-79
2021/04/01 01:12:12;;;;;;;61.75;28.35;;;332.90;1920.00;;;;;;5052445;28;20087;-77
2021/04/01 01:14:38;;;;;;;47.30;27.48;;;332.90;1920.00;;;;;;5034974;28;20032;-79
2021/04/01 01:17:04;;;;;;;;;;;332.90;1920.00;;;;;;5052043;28;20021;-78
2021/04/01 01:19:38;;;;;;;48.80;26.55;;;332.80;1920.00;;;;;;5049774;28;19912;-78
2021/04/01 01:22:05;;;;;;;59.00;29.48;;;332.80;1920.00;;;;;;5052206;28;20510;-78
2021/04/01 01:24:32;;;;;;;48.53;28.23;;;332.80;1920.00;;;;;;5050217;28;20025;-79
2021/04/01 01:26:59;;;;;;;50.10;28.25;;;332.80;1920.00;;;;;;5050321;28;20036;-78
2021/04/01 01:29:25;;;;;;;54.15;29.23;;;308.10;1920.00;;;;;;5034195;28;20021;-77
2021/04/01 01:31:53;;;;;;;50.38;29.90;;;308.10;1920.00;;;;;;5052108;28;20032;-78
2021/04/01 01:34:25;;;;;;;47.13;27.38;;;308.10;1920.00;;;;;;5050218;28;20793;-78
2021/04/01 01:36:51;;;;;;;51.50;27.52;;;308.00;1945.60;;;;;;5033368;28;20052;-79
2021/04/01 01:39:17;;;;;;;40.30;25.90;;;307.90;1945.60;;;;;;5029768;28;20108;-80
2021/04/01 01:41:42;;;;;;;53.15;29.77;;;307.90;1945.60;;;;;;5047067;28;20100;-80
2021/04/01 01:44:09;;;;;;;48.20;30.40;;;307.90;1945.60;;;;;;5042408;28;20032;-80
2021/04/01 01:46:34;;;;;;;57.08;30.98;;;308.00;1920.00;;;;;;5044494;28;20038;-80
2021/04/01 01:49:00;;;;;;;49.63;28.30;;;307.90;1920.00;;;;;;5042870;28;20484;-79
2021/04/01 01:51:29;;;;;;;48.47;27.17;;;308.00;1894.40;;;;;;5043211;28;20025;-79
2021/04/01 01:53:55;;;;;;;51.13;26.60;;;308.00;1894.40;;;;;;5044306;28;20032;-78
2021/04/01 01:56:22;;;;;;;44.22;26.52;;;308.00;1894.40;;;;;;5042469;28;20018;-80
2021/04/01 01:58:49;;;;;;;40.53;25.05;;;307.90;1868.80;;;;;;5042699;28;20366;-75
2021/04/01 02:01:18;;;;;;;36.35;23.98;;;307.90;1894.40;;;;;;5044843;28;20021;-77
2021/04/01 02:03:44;;;;;;;44.40;25.73;;;307.80;1894.40;;;;;;5047166;28;20101;-79
2021/04/01 02:06:12;;;;;;;39.72;25.38;;;307.80;1920.00;;;;;;5040149;28;20132;-79
2021/04/01 02:08:37;;;;;;;40.95;26.23;;;307.60;1945.60;;;;;;5041119;28;20028;-77
2021/04/01 02:11:03;;;;;;;42.60;26.42;;;307.60;1945.60;;;;;;5043908;28;20045;-79
2021/04/01 02:13:29;;;;;;;44.28;25.42;;;307.50;1920.00;;;;;;5042285;28;20029;-77
2021/04/01 02:15:55;;;;;;;;;;;307.40;1945.60;;;;;;5044153;28;20024;-79
2021/04/01 02:18:25;;;;;;;41.00;24.33;;;307.30;1945.60;;;;;;5044011;28;19912;-77
2021/04/01 02:20:53;;;;;;;50.38;26.25;;;282.50;1945.60;;;;;;5042569;28;20460;-78
2021/04/01 02:23:25;;;;;;;42.75;27.05;;;282.30;1971.20;;;;;;5041743;28;20021;-79
2021/04/01 02:25:53;;;;;;;44.13;25.73;;;282.10;1996.80;;;;;;5032252;28;20028;-77
2021/04/01 02:28:20;;;;;;;44.97;27.58;;;282.00;1996.80;;;;;;5043627;28;20028;-79
2021/04/01 02:30:48;;;;;;;44.97;26.77;;;281.80;1996.80;;;;;;5043979;28;20074;-79
2021/04/01 02:33:14;;;;;;;46.28;26.52;;;281.70;1996.80;;;;;;5042854;28;20029;-76
2021/04/01 02:35:40;;;;;;;41.72;27.23;;;281.70;1971.20;;;;;;5048687;28;20105;-79
2021/04/01 02:38:05;;;;;;;;;;;256.90;1971.20;;;;;;5042838;28;20018;-79
2021/04/01 02:40:32;;;;;;;41.10;24.25;;;256.80;1971.20;;;;;;5043277;28;20386;-79
2021/04/01 02:42:58;;;;;;;45.67;28.05;;;256.70;1971.20;;;;;;5043389;28;20021;-79
2021/04/01 02:45:24;;;;;;;45.47;25.90;;;256.70;1996.80;;;;;;5041977;28;20508;-77
2021/04/01 02:47:50;;;;;;;41.28;25.00;;;256.70;1996.80;;;;;;5042064;28;20017;-78
2021/04/01 02:50:16;;;;;;;;;;;256.60;1996.80;;;;;;5043883;28;20016;-78
2021/04/01 02:52:42;;;;;;;42.77;24.37;;;256.60;1996.80;;;;;;5041689;28;19945;-78
2021/04/01 02:55:09;;;;;;;;;;;256.80;1996.80;;;;;;5044926;28;20285;-79
2021/04/01 02:57:35;;;;;;;45.05;24.10;;;256.90;1996.80;;;;;;5041253;28;19905;-79
2021/04/01 03:00:04;;;;;;;;;;;256.90;1996.80;;;;;;5039283;28;20074;-78
2021/04/01 03:02:31;;;;;;;53.17;24.52;;;256.80;1996.80;;;;;;5042529;28;19962;-78
2021/04/01 03:04:57;;;;;;;42.30;24.45;;;256.70;1996.80;;;;;;5041161;28;20029;-79
2021/04/01 03:07:23;;;;;;;43.67;24.77;;;256.50;1996.80;;;;;;5043012;28;20017;-77
2021/04/01 03:09:49;;;;;;;40.40;24.25;;;256.80;1971.20;;;;;;5043145;28;20404;-78
2021/04/01 03:12:14;;;;;;;;;;;256.90;1971.20;;;;;;5043258;28;20131;-77
2021/04/01 03:14:40;;;;;;;54.40;27.27;;;256.60;2022.40;;;;;;5043946;28;19905;-77
2021/04/01 03:17:06;;;;;;;;;;;256.70;2048.00;;;;;;5042601;28;20028;-79
2021/04/01 03:19:31;;;;;;;47.15;26.33;;;256.50;2048.00;;;;;;5042652;28;19905;-79
2021/04/01 03:21:57;;;;;;;;;;;256.20;2073.60;;;;;;5044287;28;20534;-79
2021/04/01 03:24:23;;;;;;;47.17;26.88;;;256.00;2099.20;;;;;;5044038;28;19960;-79
2021/04/01 03:26:48;;;;;;;;;;;231.30;2099.20;;;;;;5042466;28;20492;-77
2021/04/01 03:29:14;;;;;;;45.85;23.23;;;231.30;2073.60;;;;;;5050869;28;19912;-77
2021/04/01 03:31:40;;;;;;;;;;;231.10;2022.40;;;;;;5045619;28;20532;-79
2021/04/01 03:34:06;;;;;;;47.03;24.33;;;231.10;2022.40;;;;;;5045339;28;19975;-77
2021/04/01 03:36:31;;;;;;;;;;;231.20;2022.40;;;;;;5045826;28;20028;-79
2021/04/01 03:38:58;;;;;;;44.83;23.20;;;256.00;2022.40;;;;;;5046568;28;19912;-78
2021/04/01 03:41:24;;;;;;;47.28;25.48;;;256.00;2048.00;;;;;;5044590;28;20021;-79
2021/04/01 03:43:49;;;;;;;51.70;24.88;;;256.10;2022.40;;;;;;5045384;28;20029;-77
2021/04/01 03:46:15;;;;;;;51.28;27.23;;;256.20;2022.40;;;;;;5046178;28;20469;-77
2021/04/01 03:48:41;;;;;;;;;;;256.30;2048.00;;;;;;5044800;28;20104;-77
2021/04/01 03:51:07;;;;;;;47.47;24.85;;;256.50;2022.40;;;;;;5045929;28;19928;-79
2021/04/01 03:53:33;;;;;;;45.63;25.70;;;256.50;2022.40;;;;;;5049636;28;20017;-77
2021/04/01 03:56:00;;;;;;;76.43;30.58;;;256.60;1996.80;;;;;;5049557;28;20044;-79
2021/04/01 04:14:05;;;;;;;58.60;29.58;;;256.60;1996.80;;;;;;5000610;28;20040;-78
2021/04/01 04:16:31;;;;;;;59.95;29.92;;;256.40;2022.40;;;;;;5003585;28;20031;-77
2021/04/01 04:18:57;;;;;;;52.50;28.63;;;256.50;2022.40;;;;;;5008362;28;20031;-77
2021/04/01 04:21:22;;;;;;;;;;;256.50;2022.40;;;;;;5007421;28;20022;-79
2021/04/01 04:23:49;;;;;;;50.10;28.15;;;256.70;2022.40;;;;;;5002797;28;19952;-77
2021/04/01 04:26:16;;;;;;;65.68;30.40;;;256.50;2048.00;;;;;;5002628;28;20065;-77
2021/04/01 04:28:42;;;;;;;57.55;28.23;;;256.30;2073.60;;;;;;4987724;28;20030;-77
2021/04/01 04:31:08;;;;;;;55.72;27.52;;;256.40;2048.00;;;;;;5005233;28;20038;-77
2021/04/01 04:33:34;;;;;;;52.22;28.85;;;256.50;2022.40;;;;;;5008141;28;20050;-77
2021/04/01 04:36:01;;;;;;;52.20;28.70;;;256.50;2022.40;;;;;;5004510;28;20542;-79
2021/04/01 04:38:28;;;;;;;50.60;26.45;;;256.40;2022.40;;;;;;4986148;28;20034;-79
2021/04/01 04:40:58;;;;;;;50.28;27.23;;;256.20;2048.00;;;;;;5002425;28;20041;-77
2021/04/01 04:43:28;;;;;;;57.42;28.60;;;256.10;2048.00;;;;;;5003699;28;20084;-77
2021/04/01 04:45:54;;;;;;;71.28;34.20;;;231.30;2073.60;;;;;;5002304;28;20038;-79
2021/04/01 04:48:21;;;;;;;68.95;35.45;;;231.10;2124.80;;;;;;5026990;28;20093;-78
2021/04/01 04:50:47;;;;;;;69.13;34.75;;;231.20;2150.40;;;;;;5045313;28;20074;-77
2021/04/01 04:53:14;;;;;;;69.80;35.15;;;256.00;2124.80;;;;;;5044330;28;20021;-79
2021/04/01 04:55:45;;;;;;;71.88;37.90;;;256.10;2124.80;;;;;;5035827;28;20126;-78
2021/04/01 05:06:09;;;;;;;65.82;32.53;;;256.60;2022.40;;;;;;4992601;28;20473;-78
2021/04/01 05:08:35;;;;;;;57.80;30.77;;;256.70;2022.40;;;;;;4992561;28;20076;-77
2021/04/01 05:11:00;;;;;;;;;;;256.90;2048.00;;;;;;4992647;28;20505;-78
2021/04/01 05:13:26;;;;;;;44.08;26.00;;;256.90;2124.80;;;;;;4989855;28;19925;-78
2021/04/01 05:15:52;;;;;;;;;;;256.90;2124.80;;;;;;4992918;28;20115;-76
2021/04/01 05:18:29;;;;;;;68.95;37.83;;;256.90;2150.40;;;;;;4992145;28;19905;-81
2021/04/01 05:20:57;;;;;;;77.00;38.63;;;281.60;2176.00;;;;;;4994720;28;20104;-78
2021/04/01 05:26:53;;;;;;;62.33;35.15;;;281.80;2176.00;;;;;;4992044;28;20042;-78
2021/04/01 05:29:06;;;;;;;57.85;34.63;;;281.90;2150.40;;;;;;4982261;28;20157;-77
2021/04/01 05:31:33;;;;;;;62.65;32.47;;;282.00;2150.40;;;;;;4993154;28;20045;-76
2021/04/01 05:33:59;;;;;;;58.92;35.30;;;282.10;2150.40;;;;;;4992211;28;20383;-76
2021/04/01 05:36:27;;;;;;;65.88;38.90;;;282.20;2150.40;;;;;;4992209;28;20037;-77
2021/04/01 05:38:54;;;;;;;78.15;46.97;;;282.40;2124.80;;;;;;5033873;28;20052;-78
2021/04/01 05:41:23;;;;;;;94.38;55.05;;;282.50;2124.80;;;;;;5048253;28;20067;-76
2021/04/01 05:44:17;;;;;;;105.60;59.75;;;307.20;2124.80;;;;;;5045546;28;20026;-76
2021/04/01 05:46:42;;;;;;;66.07;37.60;;;307.30;2124.80;;;;;;5045477;28;20552;-77
2021/04/01 06:06:37;;;;;;;65.28;38.47;;;307.90;2176.00;;;;;;4976677;28;20403;-76
2021/04/01 06:09:04;;;;;;;59.70;37.95;;;308.00;2201.60;;;;;;4965893;28;20031;-76
2021/04/01 06:11:31;;;;;;;55.75;36.72;;;308.10;2201.60;;;;;;4961230;28;20046;-75
2021/04/01 06:14:14;;;;;;;56.90;38.20;;;332.80;2227.20;;;;;;4964078;28;20082;-75
2021/04/01 06:16:42;;;;;;;54.65;35.00;;;332.80;2227.20;;;;;;4966497;28;20035;-76
2021/04/01 06:19:18;;;;;;;59.42;36.00;;;333.00;2201.60;;;;;;4983251;28;20031;-76
2021/04/01 06:21:48;;;;;;;47.95;33.28;;;333.20;2176.00;;;;;;4991419;28;20038;-76
2021/04/01 06:24:25;;;;;;;52.45;32.42;;;333.20;2176.00;;;;;;4975111;28;20057;-76
2021/04/01 06:27:00;;;;;;;49.00;28.55;;;333.30;2150.40;;;;;;4986673;28;20027;-75
2021/04/01 06:29:28;;;;;;;41.28;27.88;;;333.40;2150.40;;;;;;5054612;28;20507;-76
2021/04/01 06:31:56;;;;;;;41.53;26.33;;;333.50;2124.80;;;;;;5050222;28;20032;-76
2021/04/01 06:34:35;;;;;;;42.00;26.83;;;333.60;2073.60;;;;;;5042402;28;20020;-76
2021/04/01 06:37:02;;;;;;;39.55;25.50;;;333.70;2048.00;;;;;;5042617;28;20028;-76
2021/04/01 06:39:28;;;;;;;34.63;22.25;;;358.40;2022.40;;;;;;5051136;28;20484;-75
2021/04/01 06:42:29;;;;;;;36.08;20.73;;;358.40;1971.20;;;;;;5043906;28;20087;-76
2021/04/01 06:45:02;;;;;;;34.50;20.75;;;358.50;1920.00;;;;;;4971594;28;20038;-75
2021/04/01 06:47:32;;;;;;;35.80;22.58;;;358.60;1920.00;;;;;;4971730;28;20023;-78
2021/04/01 06:50:20;;;;;;;36.30;21.77;;;358.70;1894.40;;;;;;4971803;28;20027;-76
2021/04/01 06:53:04;;;;;;;32.63;19.63;;;358.80;1894.40;;;;;;4965603;28;20037;-75
2021/04/01 07:06:08;;;;;;;31.98;20.45;;;359.20;1843.20;;;;;;4971748;28;20031;-75
2021/04/01 07:11:38;;;;;;;38.67;22.13;;;384.10;1817.60;;;;;;4975243;28;20091;-75
2021/04/01 07:14:16;;;;;;;31.33;19.08;;;384.20;1817.60;;;;;;4975403;28;20066;-75
2021/04/01 07:19:25;;;;;;;32.33;22.20;;;384.40;1766.40;;;;;;4975377;28;20051;-76
2021/04/01 07:47:07;;;;;;;21.90;13.52;;;410.30;1638.40;;;;;;5061359;28;20081;-76
2021/04/01 07:49:38;;;;;;;28.13;12.93;;;435.20;1612.80;;;;;;5075622;28;20021;-80
2021/04/01 07:52:07;;;;;;;19.20;12.95;;;410.50;1689.60;;;;;;5059055;28;20467;-79
2021/04/01 07:55:35;;;;;;;21.63;14.63;;;435.20;1612.80;;;;;;5064548;28;20490;-80
2021/04/01 08:02:59;;;;;;;23.15;14.98;;;435.50;1638.40;;;;;;5075421;28;20082;-76
2021/04/01 08:05:30;;;;;;;24.45;14.18;;;435.50;1612.80;;;;;;5075190;28;20376;-75
2021/04/01 08:08:06;;;;;;;20.60;12.75;;;435.60;1638.40;;;;;;5068420;28;20039;-76
2021/04/01 08:10:40;;;;;;;20.48;13.52;;;435.80;1561.60;;;;;;5055218;28;20029;-75
2021/04/01 08:13:12;;;;;;;16.98;10.85;;;435.80;1587.20;;;;;;5067695;28;20104;-75
2021/04/01 08:15:53;;;;;;;15.25;9.18;;;435.90;1510.40;;;;;;5069072;28;20023;-76
2021/04/01 08:20:54;;;;;;;14.85;9.88;;;436.00;1561.60;;;;;;5064073;28;20059;-77
2021/04/01 08:23:32;;;;;;;18.45;10.65;;;436.10;1510.40;;;;;;5058815;28;20016;-75
2021/04/01 08:28:56;;;;;;;16.42;9.52;;;436.10;1510.40;;;;;;5069600;28;20025;-76
2021/04/01 08:36:28;;;;;;;17.17;9.02;;;460.90;1510.40;;;;;;5074844;28;20131;-81
2021/04/01 08:38:54;;;;;;;22.00;8.63;;;460.90;1484.80;;;;;;5068692;28;20021;-75
2021/04/01 08:41:39;;;;;;;15.68;8.93;;;460.90;1510.40;;;;;;5066760;28;20031;-75
2021/04/01 08:44:29;;;;;;;15.55;7.45;;;461.00;1510.40;;;;;;5047979;28;20078;-76
2021/04/01 08:47:19;;;;;;;13.32;8.68;;;461.10;1484.80;;;;;;5046651;28;20384;-75
2021/04/01 08:53:03;;;;;;;10.02;4.72;;;461.20;1484.80;;;;;;5048848;28;20457;-76
2021/04/01 08:55:40;;;;;;;13.38;8.10;;;461.20;1433.60;;;;;;5049873;28;20037;-76
2021/04/01 08:58:14;;;;;;;11.73;6.65;;;461.40;1510.40;;;;;;5053713;28;20020;-76
2021/04/01 09:00:43;;;;;;;14.90;8.45;;;461.50;1484.80;;;;;;5054549;28;20104;-76
2021/04/01 09:03:11;;;;;;;9.13;6.60;;;461.60;1459.20;;;;;;5054176;28;20040;-76
2021/04/01 09:05:38;;;;;;;15.45;6.05;;;461.70;1433.60;;;;;;5052027;28;20028;-76
2021/04/01 09:08:06;;;;;;;12.40;6.60;;;461.70;1433.60;;;;;;5053125;28;20503;-75
2021/04/01 09:13:09;;;;;;;11.18;6.72;;;486.50;1408.00;;;;;;5046719;28;20030;-75
2021/04/01 09:15:46;;;;;;;;;;;486.70;1433.60;;;;;;5034483;28;20481;-75
2021/04/01 09:18:22;;;;;;;13.32;6.10;;;486.70;1408.00;;;;;;5034156;28;19905;-76
2021/04/01 09:20:50;;;;;;;11.32;7.43;;;486.70;1356.80;;;;;;5034123;28;20026;-76
2021/04/01 09:23:17;;;;;;;11.57;6.57;;;486.80;1382.40;;;;;;5034150;28;20021;-75
2021/04/01 09:25:45;;;;;;;14.02;7.53;;;487.00;1356.80;;;;;;5033400;28;20448;-76
2021/04/01 09:28:13;;;;;;;14.85;7.55;;;487.00;1382.40;;;;;;5033879;28;20017;-76
2021/04/01 09:30:40;;;;;;;12.13;6.78;;;487.10;1382.40;;;;;;5033860;28;20025;-76
2021/04/01 09:33:16;;;;;;;9.88;6.00;;;487.10;1408.00;;;;;;5033912;28;20104;-76
2021/04/01 09:35:43;;;;;;;10.50;6.40;;;512.10;1356.80;;;;;;5033933;28;20025;-76
2021/04/01 09:38:11;;;;;;;15.57;7.50;;;512.00;1331.20;;;;;;5045775;28;20393;-76
2021/04/01 09:40:40;;;;;;;13.80;7.05;;;512.20;1305.60;;;;;;5045193;28;20044;-75
2021/04/01 09:43:19;;;;;;;10.32;6.75;;;512.30;1382.40;;;;;;5047607;28;20025;-75
2021/04/01 09:45:50;;;;;;;15.80;7.63;;;512.50;1331.20;;;;;;5038609;28;20385;-76
2021/04/01 09:48:25;;;;;;;11.57;7.88;;;512.50;1280.00;;;;;;5034034;28;20025;-75
2021/04/01 09:50:55;;;;;;;17.08;8.55;;;512.60;1280.00;;;;;;5052808;28;20112;-76
2021/04/01 09:53:23;;;;;;;16.15;8.75;;;512.70;1280.00;;;;;;5052798;28;20021;-76
2021/04/01 09:55:53;;;;;;;12.85;8.43;;;512.70;1331.20;;;;;;5053193;28;20083;-75
2021/04/01 09:58:29;;;;;;;12.98;8.40;;;512.80;1280.00;;;;;;5053398;28;20028;-75
2021/04/01 10:03:28;;;;;;;14.65;8.38;;;537.60;1280.00;;;;;;5045724;28;20017;-76
2021/04/01 10:05:54;;;;;;;18.95;9.50;;;537.70;1305.60;;;;;;5041952;28;20026;-75
2021/04/01 10:08:27;;;;;;;17.27;9.25;;;538.00;1254.40;;;;;;5050430;28;20032;-77
2021/04/01 10:10:55;;;;;;;12.13;8.80;;;538.30;1203.20;;;;;;5045864;28;20460;-76
2021/04/01 10:13:26;;;;;;;15.77;9.68;;;538.40;1177.60;;;;;;5052830;28;20477;-76
2021/04/01 10:15:54;;;;;;;13.20;9.27;;;538.50;1177.60;;;;;;5052821;28;20017;-77
2021/04/01 10:18:37;;;;;;;13.73;7.85;;;538.50;1228.80;;;;;;5052949;28;20103;-76
2021/04/01 10:21:09;;;;;;;12.07;8.90;;;563.20;1280.00;;;;;;5052943;28;20089;-76
2021/04/01 10:23:46;;;;;;;16.63;8.65;;;563.30;1228.80;;;;;;5058790;28;20073;-76
2021/04/01 10:26:13;;;;;;;16.77;7.82;;;563.40;1203.20;;;;;;5072746;28;20448;-77
2021/04/01 10:28:58;;;;;;;13.65;9.32;;;563.50;1254.40;;;;;;5067004;28;20104;-77
2021/04/01 10:31:24;;;;;;;11.70;8.50;;;563.40;1203.20;;;;;;5066916;28;20029;-76
2021/04/01 10:34:26;;;;;;;17.13;9.02;;;563.60;1177.60;;;;;;5067836;28;20060;-79
2021/04/01 10:36:53;;;;;;;13.40;8.13;;;563.80;1152.00;;;;;;5049979;28;20025;-79
2021/04/01 10:39:19;;;;;;;15.60;8.35;;;563.80;1254.40;;;;;;5053712;28;20013;-76
2021/04/01 10:41:53;;;;;;;15.15;9.15;;;563.90;1177.60;;;;;;5040632;28;20489;-79
2021/04/01 10:44:20;;;;;;;11.50;8.80;;;564.00;1177.60;;;;;;5042202;28;20032;-83
2021/04/01 10:46:55;;;;;;;21.02;9.82;;;564.00;1203.20;;;;;;5043827;28;20033;-83
2021/04/01 10:49:30;;;;;;;13.80;8.13;;;588.80;1126.40;;;;;;5043250;28;20020;-83
2021/04/01 10:52:03;;;;;;;17.08;9.93;;;589.00;1126.40;;;;;;5043779;28;20025;-81
2021/04/01 10:54:40;;;;;;;14.27;8.57;;;564.10;1152.00;;;;;;5043199;28;20017;-79
2021/04/01 10:57:09;;;;;;;15.02;8.63;;;564.00;1152.00;;;;;;5043348;28;20021;-80
2021/04/01 10:59:40;;;;;;;12.95;8.88;;;564.00;1126.40;;;;;;5041930;28;20027;-74
2021/04/01 11:02:20;;;;;;;10.98;9.00;;;564.10;1152.00;;;;;;5041248;28;20026;-77
2021/04/01 11:05:08;;;;;;;12.00;8.77;;;564.10;1152.00;;;;;;5031151;28;20060;-76
2021/04/01 11:07:44;;;;;;;13.02;9.13;;;564.10;1126.40;;;;;;4935987;29;20039;-77
2021/04/01 11:10:33;;;;;;;12.85;8.57;;;588.90;1126.40;;;;;;4951730;28;20035;-79
2021/04/01 11:13:00;;;;;;;16.60;9.13;;;589.10;1100.80;;;;;;4944232;29;20143;-80
2021/04/01 11:15:31;;;;;;;15.30;8.18;;;589.30;1152.00;;;;;;4952426;29;20035;-77
2021/04/01 11:18:05;;;;;;;13.13;8.45;;;589.30;1203.20;;;;;;4935424;29;20106;-79
2021/04/01 11:20:36;;;;;;;17.23;9.18;;;589.30;1126.40;;;;;;4933087;29;20027;-79
2021/04/01 11:23:15;;;;;;;17.27;9.70;;;589.50;1177.60;;;;;;4933182;29;20034;-79
2021/04/01 11:25:47;;;;;;;14.25;8.80;;;589.60;1126.40;;;;;;4943396;28;20509;-79
2021/04/01 11:28:13;;;;;;;12.93;8.88;;;589.60;1100.80;;;;;;4936273;29;20055;-80
2021/04/01 11:30:42;;;;;;;17.58;9.20;;;589.70;1100.80;;;;;;4952170;29;20461;-77
2021/04/01 11:33:09;;;;;;;16.52;8.73;;;614.40;1075.20;;;;;;4952396;29;20027;-78
2021/04/01 11:35:38;;;;;;;13.82;8.98;;;589.60;1075.20;;;;;;4952239;29;20039;-76
2021/04/01 11:38:08;;;;;;;15.45;9.05;;;589.50;1100.80;;;;;;4952084;29;20071;-79
2021/04/01 11:40:38;;;;;;;33.55;15.60;;;589.50;1100.80;;;;;;4935949;29;20030;-77
2021/04/01 11:43:04;;;;;;;22.15;9.63;;;589.70;1100.80;;;;;;4939127;29;20036;-79
2021/04/01 11:45:36;;;;;;;16.38;8.50;;;614.60;1049.60;;;;;;5001552;28;20405;-76
2021/04/01 11:48:04;;;;;;;13.40;8.15;;;614.70;1024.00;;;;;;5032095;28;20033;-79
2021/04/01 11:50:31;;;;;;;12.75;7.47;;;614.70;1024.00;;;;;;5032184;28;20041;-77
2021/04/01 11:53:01;;;;;;;13.43;8.45;;;614.70;1024.00;;;;;;5032964;28;20026;-77
2021/04/01 11:55:28;;;;;;;14.13;7.50;;;614.60;1024.00;;;;;;5035577;28;20053;-77
2021/04/01 11:57:55;;;;;;;14.93;8.38;;;614.50;1049.60;;;;;;5035622;28;20028;-77
2021/04/01 12:00:32;;;;;;;20.83;10.68;;;614.50;1049.60;;;;;;5035573;28;20048;-77
2021/04/01 12:05:30;;;;;;;12.18;7.68;;;614.90;1024.00;;;;;;5035304;28;20038;-78
2021/04/01 12:07:57;;;;;;;12.38;8.73;;;614.80;1024.00;;;;;;5035268;28;20022;-79
2021/04/01 12:10:23;;;;;;;10.25;7.22;;;614.70;1024.00;;;;;;5017691;28;20037;-81
2021/04/01 12:12:56;;;;;;;11.68;8.25;;;614.70;1024.00;;;;;;5055398;28;20075;-81
2021/04/01 12:15:39;;;;;;;13.27;7.80;;;614.70;1024.00;;;;;;5045802;28;20017;-79
2021/04/01 12:18:08;;;;;;;13.40;7.38;;;614.80;1024.00;;;;;;5048983;28;20025;-79
2021/04/01 12:20:35;;;;;;;11.48;7.63;;;614.60;1075.20;;;;;;5054857;28;20025;-78
2021/04/01 12:23:12;;;;;;;12.48;8.27;;;614.40;1049.60;;;;;;5055229;28;20032;-79
2021/04/01 12:25:38;;;;;;;14.43;8.10;;;589.40;1075.20;;;;;;5055042;28;20477;-80
2021/04/01 12:28:04;;;;;;;18.65;8.23;;;589.30;1075.20;;;;;;5037370;28;20032;-80
2021/04/01 12:30:38;;;;;;;13.23;7.97;;;589.10;1126.40;;;;;;5055141;28;20021;-80
2021/04/01 12:33:06;;;;;;;17.65;8.57;;;589.20;1126.40;;;;;;5053681;28;20051;-78
2021/04/01 12:35:32;;;;;;;15.48;8.02;;;589.10;1152.00;;;;;;5048763;28;20013;-80
2021/04/01 12:38:06;;;;;;;21.42;13.10;;;589.00;1152.00;;;;;;5054726;28;20025;-76
2021/04/01 12:40:41;;;;;;;16.17;10.18;;;564.10;1152.00;;;;;;5053906;28;20111;-76
2021/04/01 12:43:08;;;;;;;18.42;9.80;;;564.00;1126.40;;;;;;5045658;28;20025;-79
2021/04/01 12:45:36;;;;;;;18.38;11.63;;;564.10;1126.40;;;;;;5044037;28;20068;-76
2021/04/01 12:48:10;;;;;;;17.10;9.75;;;589.10;1100.80;;;;;;5042620;28;20504;-75
2021/04/01 12:50:43;;;;;;;11.25;8.48;;;589.50;1100.80;;;;;;5033228;28;20083;-76
2021/04/01 12:53:09;;;;;;;17.73;8.02;;;589.70;1100.80;;;;;;5037261;28;20063;-76
2021/04/01 12:56:07;;;;;;;10.13;7.22;;;614.40;1049.60;;;;;;5044313;28;20052;-76
2021/04/01 12:59:16;;;;;;;11.35;7.30;;;614.60;1024.00;;;;;;5044668;28;20037;-76
2021/04/01 13:03:50;;;;;;;9.52;6.88;;;614.40;1100.80;;;;;;5042877;28;20028;-79
2021/04/01 13:06:22;;;;;;;18.63;8.18;;;614.50;1049.60;;;;;;5033759;28;20171;-79
2021/04/01 13:11:14;;;;;;;11.00;7.32;;;614.80;998.40;;;;;;5042843;28;20103;-79
2021/04/01 13:13:41;;;;;;;11.98;7.65;;;614.80;1024.00;;;;;;5045589;28;20068;-80
2021/04/01 13:16:07;;;;;;;10.02;7.97;;;615.00;998.40;;;;;;5046263;28;20032;-77
2021/04/01 13:18:32;;;;;;;10.27;6.60;;;615.20;1024.00;;;;;;5053988;28;20028;-75
2021/04/01 13:20:58;;;;;;;9.98;6.40;;;615.20;972.80;;;;;;5053894;28;20536;-76
2021/04/01 13:23:48;;;;;;;12.68;8.25;;;614.90;1049.60;;;;;;5053910;28;20070;-79
2021/04/01 13:26:14;;;;;;;23.90;11.63;;;614.50;1075.20;;;;;;5052731;28;20045;-76
2021/04/01 13:28:44;;;;;;;10.60;7.22;;;614.50;1075.20;;;;;;5035460;28;20029;-76
2021/04/01 13:31:22;;;;;;;10.48;7.22;;;614.70;1024.00;;;;;;5053602;28;20083;-79
2021/04/01 13:34:00;;;;;;;14.38;6.65;;;614.80;998.40;;;;;;5053671;28;20032;-78
2021/04/01 13:36:35;;;;;;;11.85;7.57;;;614.90;998.40;;;;;;5053636;28;20021;-76
2021/04/01 13:39:02;;;;;;;15.32;8.25;;;614.80;998.40;;;;;;5053650;28;20063;-77
2021/04/01 13:44:31;;;;;;;12.10;7.45;;;615.10;998.40;;;;;;4991993;28;20060;-73
2021/04/01 13:46:58;;;;;;;12.30;7.50;;;615.20;972.80;;;;;;4992153;28;20042;-73
2021/04/01 13:49:26;;;;;;;20.45;6.72;;;614.90;1049.60;;;;;;4992190;28;20033;-76
2021/04/01 13:51:58;;;;;;;9.68;6.30;;;615.10;998.40;;;;;;4992057;28;20101;-76
2021/04/01 13:57:07;;;;;;;11.93;7.13;;;615.20;947.20;;;;;;4992076;28;20371;-77
2021/04/01 13:59:52;;;;;;;17.10;7.18;;;615.30;972.80;;;;;;4991870;28;20441;-78
2021/04/01 14:10:33;;;;;;;9.00;6.55;;;615.10;972.80;;;;;;4991614;28;20037;-77
2021/04/01 14:13:03;;;;;;;14.25;7.35;;;614.90;972.80;;;;;;4991580;28;20046;-77
2021/04/01 14:15:29;;;;;;;12.55;6.70;;;614.80;1024.00;;;;;;4995955;28;20030;-78
2021/04/01 14:17:55;;;;;;;9.88;5.82;;;614.70;998.40;;;;;;4991133;28;20041;-77
2021/04/01 14:20:21;;;;;;;9.85;7.25;;;614.70;972.80;;;;;;5005118;28;20034;-77
2021/04/01 14:22:49;;;;;;;12.45;6.55;;;614.60;998.40;;;;;;5023495;28;20469;-77
2021/04/01 14:25:22;;;;;;;9.32;6.65;;;614.60;998.40;;;;;;5021945;28;20044;-76
2021/04/01 14:27:51;;;;;;;9.93;6.10;;;614.70;998.40;;;;;;5023783;28;20021;-77
2021/04/01 14:30:22;;;;;;;9.55;6.00;;;614.70;998.40;;;;;;5008326;28;20432;-77
2021/04/01 14:32:49;;;;;;;13.25;6.63;;;614.60;998.40;;;;;;5016070;28;20464;-77